.
WxDataArchive / Data Records for 2011-03-08
2011-03-07 March 2011 2011-03-09

Data Records for Tuesday, 08 March 2011

Time	Temp	Chill	HIndex	Humid	Dewpt	 Wind 	HiWind	WindDir	Rain 	Barom 
-----	----	-----	------	-----	-----	------	------	-------	-----	----- 
00:00	30.4	30.4	30.4	86	26.7	2	4	90	0.00	30.293 
00:05	30.4	30.4	30.4	86	26.7	2	4	90	0.00	30.293 
00:10	30.6	30.6	30.6	86	26.9	3	7	90	0.00	30.293 
00:15	30.6	30.6	30.6	86	26.9	2	4	90	0.00	30.295 
00:20	30.6	30.6	30.6	85	26.6	2	4	90	0.00	30.295 
00:25	30.6	30.6	30.6	85	26.6	2	4	90	0.00	30.295 
00:30	30.6	30.6	30.6	85	26.6	3	6	90	0.00	30.296 
00:35	30.7	30.7	30.7	85	26.7	2	6	90	0.00	30.296 
00:40	30.7	30.7	30.7	83	26.2	2	6	90	0.00	30.296 
00:45	30.7	30.7	30.7	85	26.7	2	6	90	0.00	30.294 
00:50	30.7	30.7	30.7	85	26.7	2	5	68	0.00	30.294 
00:55	30.7	30.7	30.7	85	26.7	2	6	90	0.00	30.294 
01:00	30.7	30.7	30.7	84	26.4	2	4	90	0.00	30.294 
01:05	30.6	30.6	30.6	84	26.4	1	4	90	0.00	30.294 
01:10	30.6	30.6	30.6	84	26.4	2	5	90	0.00	30.294 
01:15	30.4	30.4	30.4	85	26.4	1	4	90	0.00	30.297 
01:20	30.4	30.4	30.4	85	26.4	1	3	90	0.00	30.297 
01:25	30.3	30.3	30.3	85	26.3	2	4	90	0.00	30.297 
01:30	30.1	30.1	30.1	85	26.1	1	5	90	0.00	30.299 
01:35	30.1	30.1	30.1	85	26.1	1	5	90	0.00	30.299 
01:40	30.0	30.0	30.0	86	26.3	2	5	90	0.00	30.299 
01:45	30.0	30.0	30.0	86	26.3	2	4	90	0.00	30.295 
01:50	29.8	29.8	29.8	86	26.1	2	5	90	0.00	30.295 
01:55	29.8	29.8	29.8	86	26.1	2	4	90	0.00	30.295 
02:00	29.8	29.8	29.8	87	26.4	1	3	90	0.00	30.296 
02:05	29.8	29.8	29.8	87	26.4	1	2	90	0.00	30.296 
02:10	29.7	29.7	29.7	87	26.3	1	3	90	0.00	30.296 
02:15	29.7	29.7	29.7	87	26.3	2	4	90	0.00	30.293 
02:20	29.8	29.8	29.8	87	26.4	2	6	90	0.00	30.293 
02:25	29.8	29.8	29.8	88	26.7	3	7	90	0.00	30.293 
02:30	29.8	29.8	29.8	88	26.7	3	5	90	0.00	30.287 
02:35	29.8	29.8	29.8	88	26.7	3	6	90	0.00	30.287 
02:40	29.8	29.8	29.8	88	26.7	2	4	90	0.00	30.287 
02:45	29.8	29.8	29.8	88	26.7	3	7	112	0.00	30.282 
02:50	29.8	29.8	29.8	88	26.7	3	6	90	0.00	30.282 
02:55	29.8	29.8	29.8	88	26.7	3	6	90	0.00	30.282 
03:00	29.7	29.7	29.7	88	26.6	2	7	90	0.00	30.285 
03:05	29.7	29.7	29.7	88	26.6	2	5	68	0.00	30.285 
03:10	29.7	29.7	29.7	88	26.6	3	5	112	0.00	30.285 
03:15	29.5	29.5	29.5	88	26.4	2	5	68	0.00	30.283 
03:20	29.5	29.5	29.5	88	26.4	2	4	90	0.00	30.283 
03:25	29.5	29.5	29.5	88	26.4	2	6	90	0.00	30.283 
03:30	29.4	29.4	29.4	89	26.6	2	4	90	0.00	30.286 
03:35	29.4	29.4	29.4	89	26.6	2	5	112	0.00	30.286 
03:40	29.4	29.4	29.4	89	26.6	2	6	112	0.00	30.286 
03:45	29.4	29.4	29.4	89	26.6	2	4	90	0.00	30.290 
03:50	29.4	29.4	29.4	89	26.6	1	3	68	0.00	30.290 
03:55	29.4	29.4	29.4	89	26.6	1	4	90	0.00	30.290 
04:00	29.4	29.4	29.4	89	26.6	1	4	90	0.00	30.291 
04:05	29.3	29.3	29.3	89	26.5	1	3	90	0.00	30.291 
04:10	29.3	29.3	29.3	89	26.5	1	3	90	0.00	30.291 
04:15	29.1	29.1	29.1	89	26.3	1	3	90	0.00	30.289 
04:20	29.1	29.1	29.1	89	26.3	1	4	90	0.00	30.289 
04:25	29.1	29.1	29.1	89	26.3	2	4	90	0.00	30.289 
04:30	29.1	29.1	29.1	89	26.3	3	7	90	0.00	30.277 
04:35	29.3	29.3	29.3	89	26.5	2	10	90	0.00	30.277 
04:40	29.3	29.3	29.3	89	26.5	2	4	90	0.00	30.277 
04:45	29.3	29.3	29.3	89	26.5	1	4	90	0.00	30.289 
04:50	29.3	29.3	29.3	89	26.5	2	5	90	0.00	30.289 
04:55	29.3	29.3	29.3	89	26.5	1	4	90	0.00	30.289 
05:00	29.3	29.3	29.3	89	26.5	2	5	90	0.00	30.290 
05:05	29.3	29.3	29.3	89	26.5	1	5	68	0.00	30.290 
05:10	29.3	29.3	29.3	89	26.5	2	5	90	0.00	30.290 
05:15	29.3	29.3	29.3	89	26.5	2	4	90	0.00	30.286 
05:20	29.3	29.3	29.3	89	26.5	2	6	90	0.00	30.286 
05:25	29.3	29.3	29.3	89	26.5	2	5	90	0.00	30.286 
05:30	29.3	29.3	29.3	88	26.2	2	5	112	0.00	30.281 
05:35	29.4	29.4	29.4	88	26.3	3	6	90	0.00	30.281 
05:40	29.4	29.4	29.4	88	26.3	3	6	90	0.00	30.281 
05:45	29.4	29.4	29.4	88	26.3	2	4	90	0.00	30.289 
05:50	29.4	29.4	29.4	88	26.3	2	4	90	0.00	30.289 
05:55	29.5	29.5	29.5	88	26.4	1	3	90	0.00	30.289 
06:00	29.5	29.5	29.5	88	26.4	1	4	90	0.00	30.295 
06:05	29.5	29.5	29.5	88	26.4	2	4	90	0.00	30.295 
06:10	29.5	29.5	29.5	88	26.4	1	3	68	0.00	30.295 
06:15	29.5	29.5	29.5	88	26.4	2	5	90	0.00	30.303 
06:20	29.5	29.5	29.5	88	26.4	1	3	112	0.00	30.303 
06:25	29.5	29.5	29.5	88	26.4	2	4	68	0.00	30.303 
06:30	29.5	29.5	29.5	87	26.1	1	3	68	0.00	30.308 
06:35	29.5	29.5	29.5	87	26.1	2	5	90	0.00	30.308 
06:40	29.5	29.5	29.5	87	26.1	2	5	90	0.00	30.308 
06:45	29.7	29.7	29.7	87	26.3	2	5	90	0.00	30.313 
06:50	29.7	29.7	29.7	87	26.3	2	4	90	0.00	30.313 
06:55	29.7	29.7	29.7	87	26.3	2	6	90	0.00	30.313 
07:00	29.7	29.7	29.7	87	26.3	2	5	90	0.00	30.315 
07:05	29.7	29.7	29.7	87	26.3	3	5	90	0.00	30.315 
07:10	29.7	29.7	29.7	87	26.3	3	7	90	0.00	30.315 
07:15	29.8	29.8	29.8	87	26.4	3	5	90	0.00	30.315 
07:20	29.8	29.8	29.8	86	26.1	3	6	90	0.00	30.315 
07:25	29.8	29.8	29.8	86	26.1	2	5	112	0.00	30.315 
07:30	30.0	30.0	30.0	86	26.3	2	6	90	0.00	30.320 
07:35	30.0	30.0	30.0	86	26.3	3	9	90	0.00	30.320 
07:40	30.1	30.1	30.1	86	26.4	3	7	90	0.00	30.320 
07:45	30.1	30.1	30.1	86	26.4	3	7	90	0.00	30.323 
07:50	30.3	30.3	30.3	85	26.3	3	6	90	0.00	30.323 
07:55	30.3	30.3	30.3	85	26.3	3	5	90	0.00	30.323 
08:00	30.4	30.4	30.4	85	26.4	2	5	90	0.00	30.327 
08:05	30.6	30.6	30.6	85	26.6	3	6	90	0.00	30.327 
08:10	30.7	30.7	30.7	85	26.7	2	4	112	0.00	30.327 
08:15	30.9	30.9	30.9	85	26.9	3	6	90	0.00	30.330 
08:20	31.0	31.0	31.0	85	27.0	3	6	90	0.00	30.330 
08:25	31.0	31.0	31.0	84	26.7	2	5	90	0.00	30.330 
08:30	31.2	31.2	31.2	84	26.9	2	5	45	0.00	30.338 
08:35	31.3	31.3	31.3	84	27.0	3	7	90	0.00	30.338 
08:40	31.6	31.6	31.6	84	27.3	2	6	90	0.00	30.338 
08:45	31.8	31.8	31.8	84	27.5	3	7	90	0.00	30.337 
08:50	31.9	31.9	31.9	83	27.3	3	6	112	0.00	30.337 
08:55	32.1	32.1	32.1	83	27.5	3	5	90	0.00	30.337 
09:00	32.2	32.2	32.2	83	27.6	2	4	90	0.00	30.338 
09:05	32.4	28.5	32.4	82	27.5	4	7	90	0.00	30.338 
09:10	32.5	32.5	32.5	82	27.6	3	11	112	0.00	30.338 
09:15	32.8	32.8	32.8	82	27.9	2	5	90	0.00	30.344 
09:20	32.9	29.1	32.9	81	27.7	4	7	90	0.00	30.344 
09:25	33.1	33.1	33.1	81	27.9	2	6	90	0.00	30.344 
09:30	33.4	33.4	33.4	81	28.2	2	4	112	0.00	30.343 
09:35	33.7	33.7	33.7	81	28.5	2	4	112	0.00	30.343 
09:40	33.8	33.8	33.8	80	28.3	3	7	112	0.00	30.343 
09:45	33.7	29.1	33.7	80	28.2	5	9	112	0.00	30.337 
09:50	33.7	29.1	33.7	80	28.2	5	11	90	0.00	30.337 
09:55	34.0	30.4	34.0	80	28.5	4	10	90	0.00	30.337 
10:00	34.4	29.9	34.4	80	28.9	5	10	90	0.00	30.332 
10:05	35.0	35.0	35.0	80	29.5	3	7	90	0.00	30.332 
10:10	35.5	31.2	35.5	77	29.0	5	10	112	0.00	30.332 
10:15	35.8	32.5	35.8	75	28.7	4	8	112	0.00	30.331 
10:20	36.2	32.9	36.2	75	29.1	4	8	112	0.00	30.331 
10:25	36.8	33.6	36.8	74	29.3	4	7	112	0.00	30.331 
10:30	36.9	33.7	36.9	73	29.1	4	9	112	0.00	30.324 
10:35	37.2	33.2	37.2	73	29.4	5	11	112	0.00	30.324 
10:40	37.5	37.5	37.5	71	29.0	3	9	112	0.00	30.324 
10:45	38.0	38.0	38.0	72	29.8	3	7	90	0.00	30.323 
10:50	38.6	35.7	38.6	70	29.7	4	9	90	0.00	30.323 
10:55	38.9	36.0	38.9	69	29.6	4	9	90	0.00	30.323 
11:00	38.8	35.1	38.8	68	29.2	5	10	90	0.00	30.317 
11:05	38.6	35.7	38.6	69	29.3	4	7	112	0.00	30.317 
11:10	38.5	34.7	38.5	68	28.9	5	10	90	0.00	30.317 
11:15	39.1	36.3	39.1	68	29.4	4	8	112	0.00	30.315 
11:20	39.9	36.4	39.9	68	30.2	5	10	90	0.00	30.315 
11:25	40.5	37.9	40.5	68	30.8	4	9	90	0.00	30.315 
11:30	40.9	38.4	40.9	66	30.4	4	9	90	0.00	30.306 
11:35	40.9	36.8	40.9	65	30.1	6	12	112	0.00	30.306 
11:40	41.1	38.6	41.1	66	30.6	4	12	90	0.00	30.306 
11:45	41.1	37.8	41.1	65	30.2	5	10	90	0.00	30.303 
11:50	41.5	38.2	41.5	65	30.6	5	10	112	0.00	30.303 
11:55	41.8	39.4	41.8	64	30.5	4	10	112	0.00	30.303 
12:00	41.9	38.7	41.9	64	30.6	5	9	112	0.00	30.300 
12:05	42.3	42.3	42.3	65	31.4	3	7	90	0.00	30.300 
12:10	42.8	42.8	42.8	64	31.5	3	7	112	0.00	30.300 
12:15	43.3	41.1	43.3	64	32.0	4	10	112	0.00	30.289 
12:20	43.3	40.3	43.3	63	31.6	5	12	90	0.00	30.289 
12:25	43.8	41.7	43.8	63	32.0	4	10	112	0.00	30.289 
12:30	43.8	40.9	43.8	63	32.0	5	10	112	0.00	30.283 
12:35	44.1	42.1	44.1	63	32.3	4	10	112	0.00	30.283 
12:40	44.1	42.1	44.1	62	31.9	4	9	90	0.00	30.283 
12:45	44.1	41.3	44.1	60	31.1	5	10	112	0.00	30.280 
12:50	44.2	42.2	44.2	62	32.0	4	7	90	0.00	30.280 
12:55	44.5	44.5	44.5	61	31.9	3	7	112	0.00	30.280 
13:00	44.8	44.8	44.8	62	32.6	3	7	112	0.00	30.269 
13:05	44.6	42.6	44.6	61	32.0	4	10	90	0.00	30.269 
13:10	44.9	44.9	44.9	61	32.3	3	9	112	0.00	30.269 
13:15	44.9	43.0	44.9	60	31.9	4	10	112	0.00	30.266 
13:20	45.2	45.2	45.2	61	32.6	3	9	112	0.00	30.266 
13:25	45.7	43.9	45.7	60	32.6	4	9	112	0.00	30.266 
13:30	46.1	46.1	46.1	60	33.0	3	6	112	0.00	30.262 
13:35	46.1	46.1	46.1	59	32.6	3	7	112	0.00	30.262 
13:40	46.0	46.0	46.0	59	32.5	3	7	90	0.00	30.262 
13:45	46.2	46.2	46.2	59	32.7	3	7	112	0.00	30.265 
13:50	46.2	44.5	46.2	60	33.1	4	8	112	0.00	30.265 
13:55	46.2	43.8	46.2	60	33.1	5	9	112	0.00	30.265 
14:00	46.4	44.7	46.4	61	33.7	4	7	90	0.00	30.258 
14:05	46.7	45.1	46.7	60	33.6	4	11	90	0.00	30.258 
14:10	47.1	47.1	47.1	60	33.9	3	10	90	0.00	30.258 
14:15	47.7	46.2	47.7	59	34.1	4	10	112	0.00	30.245 
14:20	48.3	46.9	48.3	58	34.2	4	10	112	0.00	30.245 
14:25	48.0	46.6	48.0	58	33.9	4	11	112	0.00	30.245 
14:30	47.7	46.2	47.7	58	33.7	4	9	90	0.00	30.232 
14:35	47.6	47.6	47.6	59	34.0	3	7	90	0.00	30.232 
14:40	47.9	45.8	47.9	58	33.8	5	10	90	0.00	30.232 
14:45	47.6	44.8	47.6	58	33.6	6	12	90	0.00	30.227 
14:50	47.4	45.9	47.4	59	33.8	4	7	90	0.00	30.227 
14:55	47.7	45.5	47.7	60	34.5	5	9	90	0.00	30.227 
15:00	48.3	46.2	48.3	58	34.2	5	10	112	0.00	30.225 
15:05	48.3	46.9	48.3	59	34.6	4	9	90	0.00	30.225 
15:10	48.2	46.8	48.2	59	34.6	4	6	112	0.00	30.225 
15:15	48.0	46.6	48.0	59	34.4	4	9	112	0.00	30.216 
15:20	48.0	45.9	48.0	60	34.8	5	12	90	0.00	30.216 
15:25	48.3	46.2	48.3	60	35.1	5	10	90	0.00	30.216 
15:30	48.3	46.2	48.3	59	34.6	5	11	90	0.00	30.214 
15:35	48.5	47.1	48.5	60	35.3	4	7	90	0.00	30.214 
15:40	48.6	47.3	48.6	60	35.3	4	11	90	0.00	30.214 
15:45	48.8	47.5	48.8	59	35.1	4	12	112	0.00	30.212 
15:50	48.8	47.5	48.8	59	35.1	4	10	90	0.00	30.212 
15:55	48.6	47.3	48.6	60	35.3	4	9	90	0.00	30.212 
16:00	48.5	48.5	48.5	61	35.7	3	6	90	0.00	30.210 
16:05	48.5	47.1	48.5	62	36.1	4	10	90	0.00	30.210 
16:10	48.6	47.3	48.6	62	36.2	4	10	90	0.00	30.210 
16:15	48.5	45.9	48.5	61	35.7	6	15	112	0.00	30.200 
16:20	48.5	46.5	48.5	62	36.1	5	15	90	0.00	30.200 
16:25	48.5	46.5	48.5	63	36.5	5	11	90	0.00	30.200 
16:30	48.3	46.9	48.3	63	36.3	4	11	90	0.00	30.200 
16:35	48.3	46.9	48.3	63	36.3	4	8	90	0.00	30.200 
16:40	48.2	45.5	48.2	63	36.2	6	10	90	0.00	30.200 
16:45	48.0	46.6	48.0	64	36.4	4	11	90	0.00	30.198 
16:50	48.0	45.9	48.0	64	36.4	5	11	90	0.00	30.198 
16:55	47.9	45.8	47.9	64	36.3	5	11	90	0.00	30.198 
17:00	47.9	46.4	47.9	64	36.3	4	10	90	0.00	30.199 
17:05	47.7	47.7	47.7	64	36.1	3	10	90	0.00	30.199 
17:10	47.7	47.7	47.7	65	36.5	3	9	90	0.00	30.199 
17:15	47.7	47.7	47.7	65	36.5	3	6	90	0.00	30.202 
17:20	47.6	46.1	47.6	66	36.8	4	10	90	0.00	30.202 
17:25	47.6	47.6	47.6	66	36.8	3	7	90	0.00	30.202 
17:30	47.4	47.4	47.4	67	37.0	3	6	90	0.00	30.207 
17:35	47.3	47.3	47.3	67	36.9	3	7	90	0.00	30.207 
17:40	47.1	47.1	47.1	67	36.7	3	8	90	0.00	30.207 
17:45	47.0	47.0	47.0	68	37.0	3	6	90	0.00	30.216 
17:50	46.8	46.8	46.8	68	36.8	3	6	90	0.00	30.216 
17:55	46.8	46.8	46.8	69	37.2	2	6	90	0.00	30.216 
18:00	46.7	46.7	46.7	69	37.1	3	7	90	0.00	30.218 
18:05	46.5	46.5	46.5	69	36.9	3	9	90	0.00	30.218 
18:10	46.4	46.4	46.4	69	36.8	3	6	90	0.00	30.218 
18:15	46.2	46.2	46.2	70	37.0	2	5	90	0.00	30.222 
18:20	46.1	46.1	46.1	70	36.9	2	4	90	0.00	30.222 
18:25	46.0	46.0	46.0	71	37.1	2	4	90	0.00	30.222 
18:30	45.8	45.8	45.8	70	36.6	2	7	90	0.00	30.218 
18:35	45.8	45.8	45.8	70	36.6	2	6	112	0.00	30.218 
18:40	45.7	45.7	45.7	70	36.5	3	7	112	0.00	30.218 
18:45	45.7	45.7	45.7	70	36.5	2	5	112	0.00	30.216 
18:50	45.4	45.4	45.4	71	36.6	2	7	112	0.00	30.216 
18:55	45.4	45.4	45.4	71	36.6	3	7	112	0.00	30.216 
19:00	45.2	45.2	45.2	71	36.4	3	11	90	0.00	30.205 
19:05	45.1	45.1	45.1	71	36.3	3	7	90	0.00	30.205 
19:10	44.9	44.9	44.9	72	36.4	3	7	112	0.00	30.205 
19:15	44.8	44.8	44.8	73	36.7	2	4	112	0.00	30.187 
19:20	44.6	44.6	44.6	72	36.1	3	8	90	0.00	30.187 
19:25	44.6	44.6	44.6	72	36.1	3	6	112	0.00	30.187 
19:30	44.5	44.5	44.5	72	36.0	3	7	90	0.00	30.200 
19:35	44.5	44.5	44.5	73	36.4	3	7	90	0.00	30.200 
19:40	44.3	44.3	44.3	73	36.2	3	6	90	0.00	30.200 
19:45	44.2	44.2	44.2	73	36.1	3	6	90	0.00	30.194 
19:50	44.2	44.2	44.2	73	36.1	2	6	90	0.00	30.194 
19:55	44.1	44.1	44.1	73	36.0	2	4	90	0.00	30.194 
20:00	44.2	44.2	44.2	72	35.8	3	9	90	0.00	30.185 
20:05	44.2	44.2	44.2	72	35.8	3	7	90	0.00	30.185 
20:10	44.2	44.2	44.2	72	35.8	3	7	90	0.00	30.185 
20:15	43.9	43.9	43.9	73	35.8	3	7	90	0.00	30.177 
20:20	43.6	43.6	43.6	74	35.9	2	6	90	0.00	30.177 
20:25	43.3	43.3	43.3	76	36.3	1	4	112	0.00	30.177 
20:30	42.9	42.9	42.9	77	36.2	2	6	112	0.00	30.200 
20:35	42.5	42.5	42.5	78	36.1	3	8	90	0.00	30.200 
20:40	42.1	42.1	42.1	78	35.7	2	7	112	0.00	30.200 
20:45	41.8	41.8	41.8	78	35.5	3	6	90	0.00	30.187 
20:50	41.5	41.5	41.5	79	35.5	2	5	90	0.00	30.187 
20:55	41.3	41.3	41.3	79	35.3	3	10	90	0.00	30.187 
21:00	41.1	41.1	41.1	79	35.1	3	9	90	0.00	30.179 
21:05	40.8	40.8	40.8	79	34.8	3	10	90	0.00	30.179 
21:10	40.6	38.0	40.6	79	34.6	4	10	90	0.00	30.179 
21:15	40.5	40.5	40.5	79	34.5	3	9	90	0.00	30.184 
21:20	40.3	40.3	40.3	79	34.3	1	5	90	0.00	30.184 
21:25	40.2	40.2	40.2	79	34.2	2	6	90	0.00	30.184 
21:30	40.1	40.1	40.1	79	34.1	2	7	90	0.00	30.180 
21:35	39.9	39.9	39.9	79	33.9	1	4	90	0.00	30.180 
21:40	39.8	39.8	39.8	79	33.8	2	6	90	0.00	30.180 
21:45	39.6	39.6	39.6	78	33.3	3	7	90	0.00	30.171 
21:50	39.5	39.5	39.5	78	33.2	3	7	90	0.00	30.171 
21:55	39.5	39.5	39.5	79	33.5	2	6	90	0.00	30.171 
22:00	39.3	39.3	39.3	79	33.3	3	7	90	0.00	30.161 
22:05	39.2	39.2	39.2	79	33.2	2	7	90	0.00	30.161 
22:10	39.1	39.1	39.1	79	33.1	2	7	112	0.00	30.161 
22:15	38.9	38.9	38.9	79	33.0	2	7	112	0.00	30.152 
22:20	38.8	38.8	38.8	79	32.9	2	7	90	0.00	30.152 
22:25	38.6	38.6	38.6	79	32.7	2	5	90	0.00	30.152 
22:30	38.5	38.5	38.5	79	32.6	2	6	112	0.00	30.138 
22:35	38.3	38.3	38.3	80	32.7	2	5	112	0.00	30.138 
22:40	38.2	38.2	38.2	80	32.6	2	5	112	0.00	30.138 
22:45	38.0	38.0	38.0	80	32.4	1	6	90	0.00	30.147 
22:50	37.8	37.8	37.8	80	32.2	1	9	90	0.00	30.147 
22:55	37.8	37.8	37.8	80	32.2	1	4	68	0.00	30.147 
23:00	37.6	37.6	37.6	80	32.0	2	6	112	0.00	30.149 
23:05	37.6	37.6	37.6	80	32.0	2	6	90	0.00	30.149 
23:10	37.5	37.5	37.5	80	31.9	2	8	112	0.00	30.149 
23:15	37.5	37.5	37.5	80	31.9	3	7	90	0.00	30.138 
23:20	37.3	37.3	37.3	79	31.4	3	9	90	0.00	30.138 
23:25	37.3	37.3	37.3	80	31.7	3	7	90	0.00	30.138 
23:30	37.2	37.2	37.2	80	31.6	3	9	90	0.00	30.137 
23:35	37.2	37.2	37.2	80	31.6	3	7	90	0.00	30.137 
23:40	37.2	37.2	37.2	80	31.6	3	9	90	0.00	30.137 
23:45	37.0	37.0	37.0	80	31.4	3	10	90	0.00	30.137 
23:50	37.0	37.0	37.0	80	31.4	3	8	90	0.00	30.137 
23:55	37.0	37.0	37.0	80	31.4	2	6	90	0.00	30.137 

CoCoRaHS
IN-AL-39
A2 Web Hosting
Creative Commons License
GoDaddy
search engine by freefind advanced

loaded 2018-11-19 19:58:09 • last modified 2010-11-18 10:43:29
Privacy PolicyDisclaimer
• wx.awcolley.com is powered by PmWiki v.2002016 •
• all content (unless otherwise noted) © 2018 A W Colley